Time;durP1;ratioP1;P1;durP2;ratioP2;P2;SDS_P1;SDS_P2;PMS_P1;PMS_P2;Temp;Humidity;BMP_temperature;BMP_pressure;BME280_temperature;BME280_humidity;BME280_pressure;Samples;Min_cycle;Max_cycle;Signal;HPM_P1;HPM_P2
2022/12/07 00:02:24;;;;;;;37.77;29.10;;;8.40;1.00;;;;;;5032280;28;20492;-60
2022/12/07 00:04:50;;;;;;;38.43;28.87;;;8.40;1.00;;;;;;5032116;28;20037;-59
2022/12/07 00:07:15;;;;;;;39.23;28.77;;;8.40;1.00;;;;;;5032245;28;20426;-60
2022/12/07 00:09:41;;;;;;;38.97;30.23;;;8.40;1.00;;;;;;5020406;28;20143;-60
2022/12/07 00:12:07;;;;;;;40.37;31.27;;;8.40;1.00;;;;;;5027744;28;20094;-60
2022/12/07 00:14:33;;;;;;;41.10;30.20;;;8.30;1.00;;;;;;5020777;28;20025;-60
2022/12/07 00:16:59;;;;;;;41.03;31.23;;;8.30;1.00;;;;;;5017497;28;20030;-60
2022/12/07 00:19:24;;;;;;;37.13;30.03;;;8.30;1.00;;;;;;5025236;28;20100;-60
2022/12/07 00:21:50;;;;;;;41.13;30.93;;;8.30;1.00;;;;;;5024181;28;20099;-59
2022/12/07 00:24:16;;;;;;;38.00;29.13;;;8.30;1.00;;;;;;5013408;28;20025;-61
2022/12/07 00:26:42;;;;;;;45.40;32.33;;;8.30;1.00;;;;;;5022605;28;20038;-61
2022/12/07 00:29:18;;;;;;;45.27;32.53;;;8.30;1.00;;;;;;5031402;28;20029;-60
2022/12/07 00:31:44;;;;;;;40.80;30.80;;;8.30;1.00;;;;;;5020390;28;20056;-61
2022/12/07 00:34:20;;;;;;;43.10;32.77;;;8.30;1.00;;;;;;5031603;28;20029;-61
2022/12/07 00:36:46;;;;;;;37.87;30.73;;;8.30;1.00;;;;;;5020410;28;20462;-60
2022/12/07 00:39:13;;;;;;;41.43;30.20;;;8.30;1.00;;;;;;5027077;28;20033;-61
2022/12/07 00:41:38;;;;;;;41.33;32.77;;;8.30;1.00;;;;;;5014576;28;20033;-61
2022/12/07 00:44:04;;;;;;;44.67;32.27;;;8.30;1.00;;;;;;5013665;28;20030;-61
2022/12/07 00:46:29;;;;;;;42.23;32.07;;;8.30;1.00;;;;;;5022327;28;20029;-61
2022/12/07 00:48:55;;;;;;;43.67;32.33;;;8.20;1.00;;;;;;5032438;28;20490;-61
2022/12/07 00:51:23;;;;;;;42.63;30.93;;;8.30;1.00;;;;;;5032112;28;20391;-61
2022/12/07 00:53:49;;;;;;;39.53;30.53;;;8.20;1.00;;;;;;5032098;28;20133;-61
2022/12/07 00:56:19;;;;;;;41.20;30.67;;;8.20;1.00;;;;;;5024136;28;20402;-61
2022/12/07 00:58:53;;;;;;;38.33;29.47;;;8.20;1.00;;;;;;5031037;28;20022;-61
2022/12/07 01:01:19;;;;;;;40.10;31.35;;;8.10;1.00;;;;;;5032195;28;20056;-61
2022/12/07 01:03:45;;;;;;;41.43;30.97;;;8.20;1.00;;;;;;5031923;28;20057;-60
2022/12/07 01:06:15;;;;;;;40.83;31.77;;;8.20;1.00;;;;;;5031971;28;20025;-60
2022/12/07 01:08:41;;;;;;;38.87;29.70;;;8.20;1.00;;;;;;5031739;28;20022;-62
2022/12/07 01:11:07;;;;;;;41.70;30.10;;;8.20;1.00;;;;;;5026754;28;20033;-61
2022/12/07 01:13:34;;;;;;;38.80;31.23;;;8.10;1.00;;;;;;5018067;28;20111;-61
2022/12/07 01:16:02;;;;;;;40.93;30.93;;;8.20;1.00;;;;;;5031967;28;20480;-60
2022/12/07 01:18:29;;;;;;;41.97;32.00;;;8.20;1.00;;;;;;5030317;28;20155;-61
2022/12/07 01:20:59;;;;;;;41.80;29.97;;;8.20;1.00;;;;;;5011942;28;20491;-60
2022/12/07 01:23:25;;;;;;;46.33;30.60;;;8.20;1.00;;;;;;5011086;28;20049;-61
2022/12/07 01:25:58;;;;;;;36.43;28.90;;;8.10;1.00;;;;;;5018102;28;20430;-60
2022/12/07 01:31:48;;;;;;;33.60;27.33;;;8.10;1.00;;;;;;5008586;28;20098;-60
2022/12/07 01:34:14;;;;;;;31.63;23.97;;;8.10;1.00;;;;;;5031602;28;20034;-61
2022/12/07 01:36:39;;;;;;;35.80;23.77;;;8.10;1.00;;;;;;5016130;28;20403;-61
2022/12/07 01:39:07;;;;;;;32.43;23.80;;;8.10;1.00;;;;;;5019280;28;20100;-61
2022/12/07 01:41:35;;;;;;;35.57;24.87;;;8.10;1.00;;;;;;5031820;28;20498;-61
2022/12/07 01:44:25;;;;;;;31.63;23.53;;;8.10;1.00;;;;;;5031953;28;20112;-61
2022/12/07 01:46:54;;;;;;;30.13;22.17;;;8.00;1.00;;;;;;5031874;28;20324;-61
2022/12/07 01:49:41;;;;;;;29.30;22.00;;;8.10;1.00;;;;;;5031451;28;20379;-60
2022/12/07 01:52:30;;;;;;;31.17;22.90;;;7.90;1.00;;;;;;5024966;28;20052;-60
2022/12/07 01:55:09;;;;;;;34.00;22.33;;;8.00;1.00;;;;;;5020207;28;20034;-60
2022/12/07 01:57:39;;;;;;;29.27;22.73;;;8.00;1.00;;;;;;5031090;28;20025;-60
2022/12/07 02:00:08;;;;;;;31.33;23.40;;;7.90;1.00;;;;;;5029286;28;20046;-60
2022/12/07 02:02:38;;;;;;;33.23;23.40;;;7.90;1.00;;;;;;5031369;28;20030;-60
2022/12/07 02:05:05;;;;;;;33.73;24.83;;;7.90;1.00;;;;;;5019251;28;20161;-61
2022/12/07 02:07:34;;;;;;;38.03;24.37;;;7.80;1.00;;;;;;5028054;28;20076;-61
2022/12/07 02:10:18;;;;;;;34.27;24.00;;;7.90;1.00;;;;;;5031510;28;20091;-61
2022/12/07 02:12:47;;;;;;;29.57;23.33;;;7.90;1.00;;;;;;5034708;28;20049;-61
2022/12/07 02:15:13;;;;;;;35.83;25.83;;;7.90;1.00;;;;;;5026981;28;20030;-60
2022/12/07 02:18:12;;;;;;;35.13;25.13;;;7.90;1.00;;;;;;5030882;28;20037;-61
2022/12/07 02:20:49;;;;;;;36.77;26.00;;;7.90;1.00;;;;;;5034654;28;20124;-60
2022/12/07 02:23:29;;;;;;;34.40;25.60;;;7.80;1.00;;;;;;5007096;28;20109;-61
2022/12/07 02:26:26;;;;;;;32.07;25.43;;;7.80;1.00;;;;;;5035059;28;20099;-61
2022/12/07 02:29:10;;;;;;;39.27;27.50;;;7.70;1.00;;;;;;5025496;28;20120;-61
2022/12/07 02:31:40;;;;;;;34.33;25.30;;;7.70;1.00;;;;;;5019068;28;20194;-60
2022/12/07 02:34:12;;;;;;;36.57;26.57;;;7.80;1.00;;;;;;5034880;28;20052;-61
2022/12/07 02:36:46;;;;;;;38.20;27.67;;;7.70;1.00;;;;;;5030430;28;20021;-60
2022/12/07 02:39:25;;;;;;;36.00;25.83;;;7.70;1.00;;;;;;5027907;28;20033;-60
2022/12/07 02:42:01;;;;;;;39.40;27.63;;;7.60;1.00;;;;;;5028557;28;20784;-60
2022/12/07 02:44:29;;;;;;;33.67;26.77;;;7.70;1.00;;;;;;5034922;28;20017;-61
2022/12/07 02:47:00;;;;;;;36.53;27.40;;;7.60;1.00;;;;;;5033126;28;20045;-60
2022/12/07 02:49:27;;;;;;;36.37;28.37;;;7.70;1.00;;;;;;5034445;28;20420;-60
2022/12/07 02:51:53;;;;;;;33.73;26.37;;;7.70;1.00;;;;;;5034175;28;20131;-61
2022/12/07 02:54:20;;;;;;;32.67;26.37;;;7.70;1.00;;;;;;5021213;28;20041;-61
2022/12/07 02:56:57;;;;;;;35.03;26.73;;;7.70;1.00;;;;;;5034467;28;20033;-60
2022/12/07 02:59:28;;;;;;;34.30;25.57;;;7.70;1.00;;;;;;5017833;28;20629;-60
2022/12/07 03:02:13;;;;;;;34.03;26.17;;;7.70;1.00;;;;;;5013474;28;20036;-60
2022/12/07 03:04:45;;;;;;;35.25;27.58;;;7.70;1.00;;;;;;5013185;28;20037;-61
2022/12/07 03:07:48;;;;;;;34.00;25.57;;;7.70;1.00;;;;;;5015118;28;20029;-60
2022/12/07 03:10:17;;;;;;;36.63;27.00;;;7.70;1.00;;;;;;5026121;28;20037;-61
2022/12/07 03:12:51;;;;;;;32.53;25.67;;;7.70;1.00;;;;;;5021365;28;20235;-60
2022/12/07 03:15:24;;;;;;;42.20;27.13;;;7.70;1.00;;;;;;5026989;28;20132;-61
2022/12/07 03:17:51;;;;;;;34.93;25.40;;;7.70;1.00;;;;;;5033982;28;20029;-61
2022/12/07 03:20:20;;;;;;;30.20;23.87;;;7.60;1.00;;;;;;5033706;28;20018;-61
2022/12/07 03:22:47;;;;;;;32.67;23.73;;;7.60;1.00;;;;;;5018007;28;20459;-60
2022/12/07 03:25:16;;;;;;;36.10;24.37;;;7.50;1.00;;;;;;5021608;28;20498;-61
2022/12/07 03:28:04;;;;;;;31.67;23.77;;;7.60;1.00;;;;;;5032001;28;20353;-61
2022/12/07 03:30:58;;;;;;;31.13;24.70;;;7.60;1.00;;;;;;5033942;28;20110;-61
2022/12/07 03:33:44;;;;;;;31.00;24.00;;;7.50;1.00;;;;;;5033802;28;20135;-61
2022/12/07 03:36:27;;;;;;;29.07;22.23;;;7.60;1.00;;;;;;5014987;28;20053;-60
2022/12/07 03:39:42;;;;;;;32.67;24.37;;;7.50;1.00;;;;;;5021327;28;20064;-60
2022/12/07 03:42:10;;;;;;;34.13;24.57;;;7.50;1.00;;;;;;5012474;28;20025;-60
2022/12/07 03:44:36;;;;;;;30.57;23.60;;;7.50;1.00;;;;;;5033484;28;20056;-60
2022/12/07 03:47:09;;;;;;;29.03;23.10;;;7.60;1.00;;;;;;5033706;28;20033;-60
2022/12/07 03:49:50;;;;;;;34.63;24.67;;;7.50;1.00;;;;;;5030071;28;20018;-61
2022/12/07 03:52:48;;;;;;;28.33;23.10;;;7.50;1.00;;;;;;5031624;28;20139;-61
2022/12/07 03:55:26;;;;;;;30.50;23.77;;;7.40;1.00;;;;;;5028969;28;20124;-61
2022/12/07 03:57:56;;;;;;;29.70;23.40;;;7.40;1.00;;;;;;4996680;28;20030;-61
2022/12/07 04:00:22;;;;;;;31.50;25.23;;;7.50;1.00;;;;;;5033292;28;20056;-61
2022/12/07 04:02:51;;;;;;;33.60;25.63;;;7.50;1.00;;;;;;5033546;28;20033;-61
2022/12/07 04:05:17;;;;;;;30.00;24.03;;;7.50;1.00;;;;;;5025351;28;20037;-61
2022/12/07 04:07:43;;;;;;;32.47;24.13;;;7.50;1.00;;;;;;5033049;28;20033;-61
2022/12/07 04:10:09;;;;;;;33.07;25.73;;;7.40;1.00;;;;;;5032893;28;20025;-61
2022/12/07 04:12:34;;;;;;;29.83;23.33;;;7.40;1.00;;;;;;5024669;28;20022;-61
2022/12/07 04:15:00;;;;;;;40.23;23.80;;;7.50;1.00;;;;;;5000118;28;20496;-61
2022/12/07 04:17:26;;;;;;;31.90;24.63;;;7.40;1.00;;;;;;5025971;28;20032;-61
2022/12/07 04:19:51;;;;;;;30.80;25.30;;;7.40;1.00;;;;;;5032757;28;20482;-61
2022/12/07 04:22:17;;;;;;;30.90;24.00;;;7.40;1.00;;;;;;5032873;28;20383;-62
2022/12/07 04:24:42;;;;;;;32.50;23.87;;;7.30;1.00;;;;;;5032599;28;20032;-61
2022/12/07 04:27:08;;;;;;;27.47;23.23;;;7.40;1.00;;;;;;5027280;28;20033;-61
2022/12/07 04:29:34;;;;;;;28.33;22.53;;;7.40;1.00;;;;;;5032598;28;20032;-61
2022/12/07 04:31:59;;;;;;;26.50;22.17;;;7.40;1.00;;;;;;5032628;28;20042;-61
2022/12/07 04:34:25;;;;;;;28.83;21.80;;;7.40;1.00;;;;;;5032513;28;20014;-61
2022/12/07 04:36:50;;;;;;;29.73;23.33;;;7.40;1.00;;;;;;5030242;28;20490;-61
2022/12/07 04:39:26;;;;;;;29.23;22.80;;;7.40;1.00;;;;;;5030838;28;20447;-61
2022/12/07 04:41:52;;;;;;;28.93;23.10;;;7.40;1.00;;;;;;5032727;28;20022;-61
2022/12/07 04:44:18;;;;;;;31.03;23.80;;;7.40;1.00;;;;;;5032276;28;20112;-61
2022/12/07 04:46:44;;;;;;;30.57;23.37;;;7.40;1.00;;;;;;5032198;28;20172;-61
2022/12/07 04:49:11;;;;;;;31.70;24.53;;;7.30;1.00;;;;;;5030137;28;20025;-61
2022/12/07 04:51:37;;;;;;;28.83;23.63;;;7.30;1.00;;;;;;5030925;28;20044;-61
2022/12/07 04:54:03;;;;;;;29.10;23.67;;;7.30;1.00;;;;;;5032037;28;20045;-61
2022/12/07 04:56:29;;;;;;;32.40;24.17;;;7.30;1.00;;;;;;5032069;28;20041;-61
2022/12/07 04:58:55;;;;;;;29.30;23.00;;;7.20;1.00;;;;;;5019387;28;20025;-61
2022/12/07 05:01:22;;;;;;;32.83;23.30;;;7.20;1.00;;;;;;5030493;28;20104;-61
2022/12/07 05:03:48;;;;;;;24.33;21.27;;;7.20;1.00;;;;;;5032124;28;20099;-61
2022/12/07 05:06:14;;;;;;;27.93;22.90;;;7.10;1.00;;;;;;5032242;28;20036;-60
2022/12/07 05:08:40;;;;;;;30.17;22.73;;;7.10;1.00;;;;;;5024106;28;20498;-60
2022/12/07 05:11:07;;;;;;;28.57;22.93;;;7.10;1.00;;;;;;5025198;28;20175;-60
2022/12/07 05:13:35;;;;;;;23.70;19.57;;;7.00;1.00;;;;;;5018018;28;20033;-60
2022/12/07 05:16:02;;;;;;;24.30;19.90;;;7.10;1.00;;;;;;5032515;28;20039;-61
2022/12/07 05:18:27;;;;;;;26.57;21.03;;;7.10;1.00;;;;;;5031854;28;20021;-60
2022/12/07 05:20:53;;;;;;;27.07;20.30;;;7.00;1.00;;;;;;5032118;28;20095;-60
2022/12/07 05:23:19;;;;;;;24.27;20.10;;;7.00;1.00;;;;;;5025081;28;20026;-60
2022/12/07 05:25:46;;;;;;;23.70;20.37;;;7.00;1.00;;;;;;5017420;28;20040;-60
2022/12/07 05:28:11;;;;;;;27.53;22.43;;;6.90;1.00;;;;;;5031901;28;20567;-60
2022/12/07 05:30:37;;;;;;;28.80;21.03;;;6.90;1.00;;;;;;5031658;28;20112;-60
2022/12/07 05:33:03;;;;;;;24.40;21.83;;;6.90;1.00;;;;;;5026092;28;20037;-60
2022/12/07 05:35:28;;;;;;;27.73;23.17;;;6.90;1.00;;;;;;5023429;28;20038;-60
2022/12/07 05:37:55;;;;;;;27.67;21.73;;;6.90;1.00;;;;;;5029930;28;20109;-60
2022/12/07 05:40:21;;;;;;;27.43;21.60;;;6.90;1.00;;;;;;5031630;28;20101;-60
2022/12/07 05:42:46;;;;;;;28.73;21.43;;;6.90;1.00;;;;;;5022439;28;20495;-60
2022/12/07 05:45:12;;;;;;;25.57;21.37;;;6.90;1.00;;;;;;5033055;28;20383;-60
2022/12/07 05:47:38;;;;;;;23.73;19.70;;;6.90;1.00;;;;;;5035747;28;20029;-60
2022/12/07 05:50:04;;;;;;;25.27;19.90;;;6.90;1.00;;;;;;5035454;28;20444;-60
2022/12/07 05:52:30;;;;;;;25.47;20.30;;;6.90;1.00;;;;;;5030970;28;20042;-60
2022/12/07 05:54:55;;;;;;;24.03;18.97;;;6.80;1.00;;;;;;5033279;28;20116;-60
2022/12/07 05:57:21;;;;;;;24.27;19.37;;;6.60;1.00;;;;;;5035614;28;20037;-60
2022/12/07 05:59:46;;;;;;;21.37;19.00;;;6.40;1.00;;;;;;5030909;28;20091;-60
2022/12/07 06:02:14;;;;;;;24.13;19.30;;;6.50;1.00;;;;;;5018770;28;20383;-60
2022/12/07 06:04:43;;;;;;;24.73;20.37;;;6.50;1.00;;;;;;5035261;28;20029;-60
2022/12/07 06:07:10;;;;;;;21.10;18.60;;;6.50;1.00;;;;;;5008585;28;20029;-60
2022/12/07 06:09:36;;;;;;;22.97;19.60;;;6.50;1.00;;;;;;5035296;28;20033;-61
2022/12/07 06:14:47;;;;;;;;;;;6.50;1.00;;;;;;5028715;28;20556;-60
2022/12/07 06:17:14;;;;;;;22.57;17.57;;;6.30;1.00;;;;;;5020415;28;19913;-60
2022/12/07 06:19:40;;;;;;;21.77;17.87;;;6.30;1.00;;;;;;5035020;28;20511;-60
2022/12/07 06:22:06;;;;;;;20.70;18.57;;;6.30;1.00;;;;;;5034972;28;20014;-60
2022/12/07 06:24:32;;;;;;;20.07;17.83;;;6.30;1.00;;;;;;5034821;28;20026;-60
2022/12/07 06:26:58;;;;;;;20.47;17.77;;;6.20;1.00;;;;;;5022845;28;20021;-60
2022/12/07 06:29:24;;;;;;;20.47;16.53;;;6.00;1.00;;;;;;5034923;28;20032;-60
2022/12/07 06:31:50;;;;;;;19.33;16.17;;;5.90;1.00;;;;;;5034819;28;20034;-60
2022/12/07 06:34:18;;;;;;;20.07;16.60;;;6.00;1.00;;;;;;5034771;28;20171;-60
2022/12/07 06:36:44;;;;;;;20.63;16.53;;;6.00;1.00;;;;;;5034837;28;20029;-60
2022/12/07 06:39:10;;;;;;;19.73;15.60;;;5.90;1.00;;;;;;5034688;28;20030;-60
2022/12/07 06:41:37;;;;;;;16.80;15.10;;;5.90;1.00;;;;;;5032046;28;20138;-60
2022/12/07 06:44:06;;;;;;;17.43;14.83;;;5.90;1.00;;;;;;5033205;28;20416;-60
2022/12/07 06:46:32;;;;;;;21.30;15.47;;;5.90;1.00;;;;;;5034697;28;20018;-60
2022/12/07 06:48:58;;;;;;;17.97;14.80;;;5.90;1.00;;;;;;5034306;28;20022;-60
2022/12/07 06:51:23;;;;;;;17.20;15.33;;;5.70;1.00;;;;;;5034351;28;20043;-60
2022/12/07 06:53:49;;;;;;;18.57;15.43;;;5.40;1.00;;;;;;5024310;28;20120;-60
2022/12/07 06:56:15;;;;;;;20.00;15.13;;;5.40;1.00;;;;;;5032333;28;20022;-60
2022/12/07 06:58:41;;;;;;;21.57;14.53;;;5.60;1.00;;;;;;5034434;28;20021;-60
2022/12/07 07:01:16;;;;;;;19.90;15.83;;;5.40;1.00;;;;;;5032860;28;20037;-60
2022/12/07 07:03:42;;;;;;;20.13;15.83;;;5.50;1.00;;;;;;5034435;28;20045;-60
2022/12/07 07:06:08;;;;;;;20.40;16.73;;;5.60;1.00;;;;;;5034212;28;20026;-60
2022/12/07 07:08:35;;;;;;;23.50;17.80;;;5.40;1.00;;;;;;5022738;28;20029;-61
2022/12/07 07:11:01;;;;;;;21.80;17.83;;;5.20;1.00;;;;;;5034304;28;20107;-61
2022/12/07 07:13:27;;;;;;;26.20;19.43;;;5.30;1.00;;;;;;5019941;28;20483;-61
2022/12/07 07:15:53;;;;;;;23.80;18.37;;;5.10;1.00;;;;;;5034186;28;20201;-60
2022/12/07 07:18:19;;;;;;;24.97;18.43;;;5.20;1.00;;;;;;5034150;28;20084;-61
2022/12/07 07:20:44;;;;;;;25.67;18.10;;;5.10;1.00;;;;;;5031224;28;20037;-61
2022/12/07 07:23:10;;;;;;;25.10;18.93;;;5.30;1.00;;;;;;5025827;28;20068;-60
2022/12/07 07:25:36;;;;;;;26.93;19.50;;;5.40;1.00;;;;;;5033862;28;20014;-60
2022/12/07 07:28:01;;;;;;;28.67;19.47;;;5.30;1.00;;;;;;5034045;28;20022;-60
2022/12/07 07:30:27;;;;;;;29.63;20.13;;;5.40;1.00;;;;;;5017942;28;20115;-60
2022/12/07 07:33:02;;;;;;;27.17;20.37;;;5.20;1.00;;;;;;5033694;28;20168;-60
2022/12/07 07:35:30;;;;;;;30.03;20.80;;;5.30;1.00;;;;;;5027731;28;20028;-61
2022/12/07 07:37:56;;;;;;;31.93;20.33;;;5.20;1.00;;;;;;5033761;28;20048;-60
2022/12/07 07:40:22;;;;;;;28.53;20.63;;;5.30;1.00;;;;;;5033526;28;20476;-60
2022/12/07 07:42:52;;;;;;;32.97;22.43;;;5.30;1.00;;;;;;5021925;28;20446;-60
2022/12/07 07:45:19;;;;;;;33.50;23.00;;;5.30;1.00;;;;;;5024084;28;20519;-61
2022/12/07 07:47:44;;;;;;;33.83;20.63;;;5.30;1.00;;;;;;5017200;28;20045;-61
2022/12/07 07:50:11;;;;;;;32.87;22.03;;;5.30;1.00;;;;;;5033370;28;20392;-61
2022/12/07 07:52:36;;;;;;;34.90;23.13;;;5.30;1.00;;;;;;5032990;28;20056;-60
2022/12/07 07:55:02;;;;;;;29.97;21.67;;;5.40;1.00;;;;;;5033372;28;20108;-60
2022/12/07 07:57:28;;;;;;;27.00;19.83;;;5.30;1.00;;;;;;5033597;28;20452;-60
2022/12/07 07:59:54;;;;;;;30.80;20.37;;;5.30;1.00;;;;;;5022853;28;20034;-60
2022/12/07 08:02:22;;;;;;;25.43;19.80;;;5.30;1.00;;;;;;5009447;28;20021;-60
2022/12/07 08:04:48;;;;;;;28.43;20.53;;;5.40;1.00;;;;;;5010851;28;20029;-60
2022/12/07 08:07:15;;;;;;;28.87;19.67;;;5.10;1.00;;;;;;5011488;28;20033;-60
2022/12/07 08:09:41;;;;;;;28.97;20.57;;;5.20;1.00;;;;;;5015526;28;20030;-60
2022/12/07 08:12:07;;;;;;;27.73;21.07;;;5.20;1.00;;;;;;5013201;28;20042;-60
2022/12/07 08:14:33;;;;;;;27.00;20.60;;;5.20;1.00;;;;;;5031648;28;20029;-60
2022/12/07 08:16:59;;;;;;;26.30;20.37;;;5.00;1.00;;;;;;5020437;28;20021;-60
2022/12/07 08:19:25;;;;;;;28.80;20.93;;;5.20;1.00;;;;;;5019081;28;20514;-60
2022/12/07 08:21:50;;;;;;;24.73;20.13;;;5.20;1.00;;;;;;5032164;28;20472;-61
2022/12/07 08:24:16;;;;;;;35.17;22.20;;;4.90;1.00;;;;;;5021093;28;20033;-61
2022/12/07 08:26:42;;;;;;;35.13;21.50;;;5.00;1.00;;;;;;5026183;28;20028;-61
2022/12/07 08:29:08;;;;;;;27.60;20.87;;;5.20;1.00;;;;;;5032699;28;20021;-60
2022/12/07 08:31:34;;;;;;;36.47;21.77;;;5.30;1.00;;;;;;5032702;28;20029;-60
2022/12/07 08:33:59;;;;;;;29.63;20.97;;;5.10;1.00;;;;;;5029104;28;20061;-60
2022/12/07 08:36:25;;;;;;;40.67;23.40;;;4.90;1.00;;;;;;5011044;28;20104;-60
2022/12/07 08:38:51;;;;;;;39.20;25.70;;;5.20;1.00;;;;;;5023333;28;20387;-60
2022/12/07 08:41:17;;;;;;;44.33;27.57;;;5.20;1.00;;;;;;5032254;28;20062;-61
2022/12/07 08:43:43;;;;;;;45.27;28.90;;;5.30;1.00;;;;;;5031960;28;20431;-60
2022/12/07 08:46:23;;;;;;;46.63;27.67;;;5.20;1.00;;;;;;5029001;28;20036;-60
2022/12/07 08:48:54;;;;;;;41.50;26.87;;;5.30;1.00;;;;;;5028120;28;20072;-60
2022/12/07 08:51:22;;;;;;;36.87;24.63;;;5.20;1.00;;;;;;5032040;28;20037;-60
2022/12/07 08:53:49;;;;;;;38.77;26.00;;;5.30;1.00;;;;;;5018190;28;20045;-60
2022/12/07 08:56:14;;;;;;;45.57;27.30;;;5.20;1.00;;;;;;5032034;28;20566;-60
2022/12/07 08:58:40;;;;;;;46.00;27.20;;;5.40;1.00;;;;;;5032346;28;20112;-60
2022/12/07 09:01:06;;;;;;;47.43;28.27;;;5.50;1.00;;;;;;5027006;28;20105;-59
2022/12/07 09:03:32;;;;;;;51.30;28.20;;;5.50;1.00;;;;;;5030406;28;20067;-59
2022/12/07 09:05:58;;;;;;;49.40;27.73;;;5.50;1.00;;;;;;5031923;28;20026;-59
2022/12/07 09:08:40;;;;;;;38.80;25.77;;;5.60;1.00;;;;;;5031884;28;20112;-60
2022/12/07 09:11:05;;;;;;;41.10;23.77;;;5.60;1.00;;;;;;5031744;28;20041;-60
2022/12/07 09:13:31;;;;;;;37.47;23.80;;;5.70;1.00;;;;;;5029878;28;20420;-60
2022/12/07 09:15:57;;;;;;;33.60;23.23;;;5.70;1.00;;;;;;5031635;28;20018;-59
2022/12/07 09:18:24;;;;;;;34.07;22.90;;;5.70;1.00;;;;;;5031695;28;20506;-59
2022/12/07 09:20:49;;;;;;;35.13;23.07;;;5.70;1.00;;;;;;5031577;28;20033;-59
2022/12/07 09:23:15;;;;;;;31.27;23.63;;;5.70;1.00;;;;;;5022223;28;20399;-59
2022/12/07 09:25:41;;;;;;;40.23;24.93;;;5.70;1.00;;;;;;5032029;28;20022;-60
2022/12/07 09:28:06;;;;;;;36.37;24.07;;;5.80;1.00;;;;;;5031371;28;20037;-60
2022/12/07 09:30:32;;;;;;;37.20;25.53;;;5.90;1.00;;;;;;5030170;28;20112;-59
2022/12/07 09:32:58;;;;;;;33.60;23.70;;;5.80;1.00;;;;;;5019217;28;20116;-60
2022/12/07 09:35:24;;;;;;;35.93;24.47;;;6.00;1.00;;;;;;5023107;28;20018;-60
2022/12/07 09:37:49;;;;;;;40.00;25.07;;;6.00;1.00;;;;;;5026213;28;20025;-60
2022/12/07 09:40:17;;;;;;;39.63;26.60;;;6.00;1.00;;;;;;5011977;28;20028;-55
2022/12/07 09:42:47;;;;;;;42.70;28.63;;;6.00;1.00;;;;;;5027757;28;20033;-51
2022/12/07 09:45:27;;;;;;;47.53;29.30;;;6.00;1.00;;;;;;5022863;28;20049;-51
2022/12/07 09:47:53;;;;;;;46.37;30.13;;;6.10;1.00;;;;;;5031609;28;20052;-55
2022/12/07 09:50:25;;;;;;;45.83;30.57;;;5.90;1.00;;;;;;5031271;28;20151;-54
2022/12/07 09:52:53;;;;;;;51.60;32.77;;;5.90;1.00;;;;;;5029569;28;20506;-55
2022/12/07 09:55:30;;;;;;;57.60;33.27;;;6.00;1.00;;;;;;5029737;28;20479;-52
2022/12/07 09:57:58;;;;;;;59.87;34.27;;;6.00;1.00;;;;;;5031666;28;20032;-57
2022/12/07 10:00:25;;;;;;;63.40;36.00;;;6.00;1.00;;;;;;5031252;28;20026;-53
2022/12/07 10:02:57;;;;;;;67.63;36.67;;;6.00;1.00;;;;;;5027998;28;20029;-53
2022/12/07 10:05:35;;;;;;;68.07;37.50;;;6.10;1.00;;;;;;5027083;28;20030;-51
2022/12/07 10:08:01;;;;;;;58.27;36.73;;;5.90;1.00;;;;;;5031354;28;20479;-60
2022/12/07 10:10:34;;;;;;;62.83;35.80;;;5.70;1.00;;;;;;5031428;28;20045;-61
2022/12/07 10:13:04;;;;;;;65.30;39.70;;;5.80;1.00;;;;;;5018201;28;20029;-53
2022/12/07 10:15:44;;;;;;;68.37;38.20;;;5.90;1.00;;;;;;5021957;28;20064;-67
2022/12/07 10:18:27;;;;;;;65.13;37.17;;;5.80;1.00;;;;;;5028426;28;20032;-61
2022/12/07 10:21:07;;;;;;;67.80;37.93;;;5.70;1.00;;;;;;5031699;28;20170;-53
2022/12/07 10:23:33;;;;;;;64.50;37.67;;;5.70;1.00;;;;;;5005262;28;20116;-55
2022/12/07 10:25:59;;;;;;;64.43;37.00;;;5.70;1.00;;;;;;5009705;28;20118;-58
2022/12/07 10:28:35;;;;;;;65.87;37.30;;;5.80;1.00;;;;;;5029052;28;20068;-59
2022/12/07 10:31:15;;;;;;;65.93;38.27;;;5.90;1.00;;;;;;5026614;28;20040;-59
2022/12/07 10:33:52;;;;;;;74.63;39.70;;;6.00;1.00;;;;;;5007720;28;20028;-59
2022/12/07 10:36:20;;;;;;;72.47;40.13;;;5.80;1.00;;;;;;5019303;28;20054;-59
2022/12/07 10:38:58;;;;;;;72.40;40.83;;;6.00;1.00;;;;;;5021075;28;20032;-59
2022/12/07 10:41:24;;;;;;;76.40;43.77;;;6.10;1.00;;;;;;5034704;28;20479;-60
2022/12/07 10:43:53;;;;;;;86.67;46.80;;;6.20;1.00;;;;;;5034548;28;20025;-60
2022/12/07 10:46:40;;;;;;;81.30;45.17;;;6.10;1.00;;;;;;5021540;28;20034;-59
2022/12/07 10:49:43;;;;;;;82.07;47.13;;;6.30;1.00;;;;;;5020391;28;20384;-59
2022/12/07 10:52:42;;;;;;;85.20;45.40;;;6.30;1.00;;;;;;5032666;28;20175;-60
2022/12/07 10:55:22;;;;;;;78.43;44.17;;;6.20;1.00;;;;;;5028094;28;20048;-61
2022/12/07 10:58:06;;;;;;;77.27;44.67;;;6.20;1.00;;;;;;5028400;28;20030;-60
2022/12/07 11:00:43;;;;;;;77.23;45.13;;;6.20;1.00;;;;;;5034567;28;20017;-60
2022/12/07 11:03:14;;;;;;;74.27;45.63;;;6.20;1.00;;;;;;5020185;28;20369;-60
2022/12/07 11:05:59;;;;;;;83.60;47.70;;;5.90;1.00;;;;;;5022316;28;20495;-61
2022/12/07 11:08:36;;;;;;;77.80;44.03;;;6.20;1.00;;;;;;5033476;28;20049;-60
2022/12/07 11:11:13;;;;;;;79.47;46.40;;;6.20;1.00;;;;;;5033885;28;20056;-60
2022/12/07 11:13:47;;;;;;;86.43;49.37;;;6.20;1.00;;;;;;5016747;28;20427;-61
2022/12/07 11:16:25;;;;;;;85.10;47.58;;;6.30;1.00;;;;;;5030484;28;20061;-60
2022/12/07 11:19:15;;;;;;;81.73;46.90;;;6.30;1.00;;;;;;5033697;28;20158;-61
2022/12/07 11:21:52;;;;;;;78.43;45.87;;;6.30;1.00;;;;;;5028305;28;20479;-60
2022/12/07 11:24:25;;;;;;;81.40;46.53;;;6.30;1.00;;;;;;5026792;28;20545;-61
2022/12/07 11:27:04;;;;;;;74.70;44.27;;;6.30;1.00;;;;;;5034389;28;20423;-61
2022/12/07 11:29:35;;;;;;;69.23;43.87;;;6.30;1.00;;;;;;5033868;28;20029;-61
2022/12/07 11:32:09;;;;;;;63.33;40.10;;;6.40;1.00;;;;;;5006933;28;20041;-61
2022/12/07 11:34:50;;;;;;;61.33;39.63;;;6.50;1.00;;;;;;5028811;28;20479;-60
2022/12/07 11:37:23;;;;;;;60.23;37.17;;;6.30;1.00;;;;;;5008237;28;20076;-61
2022/12/07 11:39:56;;;;;;;49.57;35.90;;;6.30;1.00;;;;;;5033755;28;20029;-61
2022/12/07 11:42:39;;;;;;;49.80;35.33;;;6.40;1.00;;;;;;5032805;28;20021;-60
2022/12/07 11:45:25;;;;;;;50.23;33.80;;;6.40;1.00;;;;;;5028658;28;20030;-61
2022/12/07 11:48:14;;;;;;;44.77;32.63;;;6.50;1.00;;;;;;5033861;28;20045;-61
2022/12/07 11:50:50;;;;;;;46.07;32.80;;;6.50;1.00;;;;;;5006015;28;20021;-60
2022/12/07 11:53:24;;;;;;;43.33;31.43;;;6.40;1.00;;;;;;5033367;28;20464;-60
2022/12/07 11:56:10;;;;;;;;;;;6.50;1.00;;;;;;5034077;28;20501;-60
2022/12/07 11:58:49;;;;;;;44.72;31.58;;;6.40;1.00;;;;;;5024976;28;20001;-61
2022/12/07 12:01:19;;;;;;;46.27;31.50;;;6.50;1.00;;;;;;5033304;28;20483;-61
2022/12/07 12:03:47;;;;;;;43.80;32.13;;;6.50;1.00;;;;;;5019039;28;20294;-60
2022/12/07 12:06:14;;;;;;;43.53;32.33;;;6.60;1.00;;;;;;5031631;28;20087;-61
2022/12/07 12:08:57;;;;;;;41.93;30.50;;;6.70;1.00;;;;;;5016401;28;20144;-60
2022/12/07 12:11:45;;;;;;;42.80;30.77;;;6.80;1.00;;;;;;5027936;28;20037;-61
2022/12/07 12:14:23;;;;;;;44.07;31.97;;;6.80;1.00;;;;;;4996633;28;20134;-60
2022/12/07 12:17:22;;;;;;;43.20;31.70;;;6.60;1.00;;;;;;5008301;28;20025;-61
2022/12/07 12:20:17;;;;;;;43.37;30.03;;;6.80;1.00;;;;;;5032960;28;20494;-61
2022/12/07 12:22:46;;;;;;;;;;;6.90;1.00;;;;;;5032109;28;20037;-61
2022/12/07 12:25:37;;;;;;;41.07;31.53;;;7.00;1.00;;;;;;5010114;28;19945;-61
2022/12/07 12:28:03;;;;;;;43.40;31.40;;;6.90;1.00;;;;;;5024879;28;20044;-62
2022/12/07 12:30:39;;;;;;;38.83;29.73;;;6.90;1.00;;;;;;5032849;28;20021;-61
2022/12/07 12:33:29;;;;;;;44.10;32.23;;;7.00;1.00;;;;;;5018642;28;20368;-61
2022/12/07 12:36:18;;;;;;;42.23;30.73;;;6.90;1.00;;;;;;5016398;28;20490;-61
2022/12/07 12:38:49;;;;;;;41.73;30.87;;;6.90;1.00;;;;;;5030971;28;20037;-61
2022/12/07 12:44:15;;;;;;;45.40;32.80;;;6.80;1.00;;;;;;5030581;28;20033;-59
2022/12/07 12:46:59;;;;;;;40.80;30.97;;;6.90;1.00;;;;;;5032444;28;20475;-59
2022/12/07 12:49:25;;;;;;;42.53;30.95;;;6.80;1.00;;;;;;5022081;28;20109;-59
2022/12/07 12:52:17;;;;;;;44.87;31.63;;;6.80;1.00;;;;;;5027915;28;20057;-59
2022/12/07 12:55:11;;;;;;;40.73;30.97;;;7.00;1.00;;;;;;5021999;28;20132;-59
2022/12/07 12:57:37;;;;;;;44.40;33.53;;;7.00;1.00;;;;;;5022194;28;20097;-59
2022/12/07 13:00:17;;;;;;;45.53;32.70;;;7.00;1.00;;;;;;5017701;28;20464;-59
2022/12/07 13:02:51;;;;;;;44.90;31.80;;;7.10;1.00;;;;;;5026041;28;20087;-59
2022/12/07 13:05:27;;;;;;;40.03;31.15;;;7.10;1.00;;;;;;5032216;28;20022;-59
2022/12/07 13:07:54;;;;;;;45.03;32.40;;;7.10;1.00;;;;;;5032133;28;20052;-59
2022/12/07 13:10:29;;;;;;;45.37;32.37;;;7.10;1.00;;;;;;5028031;28;20021;-60
2022/12/07 13:13:17;;;;;;;43.30;30.38;;;7.10;1.00;;;;;;5028948;28;20040;-59
2022/12/07 13:16:07;;;;;;;50.67;34.77;;;7.10;1.00;;;;;;5024487;28;20099;-59
2022/12/07 13:18:33;;;;;;;51.17;34.53;;;7.10;1.00;;;;;;5021024;28;20057;-59